sensor_id;sensor_type;location;lat;lon;timestamp;temperature;humidity
19813;DHT22;10066;48.108;11.448;2022-08-21T00:00:08;16.50;99.90
19813;DHT22;10066;48.108;11.448;2022-08-21T00:02:35;16.50;99.90
19813;DHT22;10066;48.108;11.448;2022-08-21T00:05:04;16.40;99.90
19813;DHT22;10066;48.108;11.448;2022-08-21T00:07:31;16.40;99.90
19813;DHT22;10066;48.108;11.448;2022-08-21T00:09:58;16.30;99.90
19813;DHT22;10066;48.108;11.448;2022-08-21T00:12:25;16.30;99.90
19813;DHT22;10066;48.108;11.448;2022-08-21T00:14:54;16.30;99.90
19813;DHT22;10066;48.108;11.448;2022-08-21T00:17:21;16.20;99.90
19813;DHT22;10066;48.108;11.448;2022-08-21T00:19:48;16.20;99.90
19813;DHT22;10066;48.108;11.448;2022-08-21T00:22:15;16.10;99.90
19813;DHT22;10066;48.108;11.448;2022-08-21T00:24:42;16.10;99.90
19813;DHT22;10066;48.108;11.448;2022-08-21T00:27:09;16.00;99.90
19813;DHT22;10066;48.108;11.448;2022-08-21T00:29:37;16.00;99.90
19813;DHT22;10066;48.108;11.448;2022-08-21T00:32:05;16.00;99.90
19813;DHT22;10066;48.108;11.448;2022-08-21T00:34:33;15.90;99.90
19813;DHT22;10066;48.108;11.448;2022-08-21T00:37:00;15.90;99.90
19813;DHT22;10066;48.108;11.448;2022-08-21T00:39:27;15.80;99.90
19813;DHT22;10066;48.108;11.448;2022-08-21T00:41:54;15.80;99.90
19813;DHT22;10066;48.108;11.448;2022-08-21T00:44:21;15.80;99.90
19813;DHT22;10066;48.108;11.448;2022-08-21T00:46:48;15.80;99.90
19813;DHT22;10066;48.108;11.448;2022-08-21T00:49:16;15.80;99.90
19813;DHT22;10066;48.108;11.448;2022-08-21T00:51:48;15.80;99.90
19813;DHT22;10066;48.108;11.448;2022-08-21T00:54:17;15.80;99.90
19813;DHT22;10066;48.108;11.448;2022-08-21T00:56:45;15.80;99.90
19813;DHT22;10066;48.108;11.448;2022-08-21T00:59:12;15.70;99.90
19813;DHT22;10066;48.108;11.448;2022-08-21T01:01:40;15.70;99.90
19813;DHT22;10066;48.108;11.448;2022-08-21T01:04:07;15.60;99.90
19813;DHT22;10066;48.108;11.448;2022-08-21T01:06:35;15.60;99.90
19813;DHT22;10066;48.108;11.448;2022-08-21T01:09:02;15.60;99.90
19813;DHT22;10066;48.108;11.448;2022-08-21T01:11:30;15.50;99.90
19813;DHT22;10066;48.108;11.448;2022-08-21T01:13:57;15.50;99.90
19813;DHT22;10066;48.108;11.448;2022-08-21T01:16:25;15.50;99.90
19813;DHT22;10066;48.108;11.448;2022-08-21T01:18:53;15.40;99.90
19813;DHT22;10066;48.108;11.448;2022-08-21T01:21:23;15.40;99.90
19813;DHT22;10066;48.108;11.448;2022-08-21T01:23:52;15.40;99.90
19813;DHT22;10066;48.108;11.448;2022-08-21T01:26:23;15.40;99.90
19813;DHT22;10066;48.108;11.448;2022-08-21T01:28:55;15.30;99.90
19813;DHT22;10066;48.108;11.448;2022-08-21T01:31:25;15.30;99.90
19813;DHT22;10066;48.108;11.448;2022-08-21T01:33:53;15.30;99.90
19813;DHT22;10066;48.108;11.448;2022-08-21T01:36:22;15.30;99.90
19813;DHT22;10066;48.108;11.448;2022-08-21T01:38:49;15.30;99.90
19813;DHT22;10066;48.108;11.448;2022-08-21T01:41:16;15.30;99.90
19813;DHT22;10066;48.108;11.448;2022-08-21T01:43:44;15.20;99.90
19813;DHT22;10066;48.108;11.448;2022-08-21T01:46:12;15.20;99.90
19813;DHT22;10066;48.108;11.448;2022-08-21T01:48:40;15.20;99.90
19813;DHT22;10066;48.108;11.448;2022-08-21T01:51:07;15.20;99.90
19813;DHT22;10066;48.108;11.448;2022-08-21T01:53:36;15.10;99.90
19813;DHT22;10066;48.108;11.448;2022-08-21T01:56:07;15.10;99.90
19813;DHT22;10066;48.108;11.448;2022-08-21T01:58:35;15.10;99.90
19813;DHT22;10066;48.108;11.448;2022-08-21T02:01:03;15.10;99.90
19813;DHT22;10066;48.108;11.448;2022-08-21T02:03:30;15.00;99.90
19813;DHT22;10066;48.108;11.448;2022-08-21T02:05:58;15.00;99.90
19813;DHT22;10066;48.108;11.448;2022-08-21T02:08:24;14.90;99.90
19813;DHT22;10066;48.108;11.448;2022-08-21T02:10:53;14.90;99.90
19813;DHT22;10066;48.108;11.448;2022-08-21T02:13:20;15.00;99.90
19813;DHT22;10066;48.108;11.448;2022-08-21T02:15:47;14.90;99.90
19813;DHT22;10066;48.108;11.448;2022-08-21T02:18:14;14.80;99.90
19813;DHT22;10066;48.108;11.448;2022-08-21T02:20:46;14.80;99.90
19813;DHT22;10066;48.108;11.448;2022-08-21T02:23:14;14.90;99.90
19813;DHT22;10066;48.108;11.448;2022-08-21T02:25:41;14.80;99.90
19813;DHT22;10066;48.108;11.448;2022-08-21T02:28:11;14.80;99.90
19813;DHT22;10066;48.108;11.448;2022-08-21T02:30:41;14.80;99.90
19813;DHT22;10066;48.108;11.448;2022-08-21T02:33:10;14.80;99.90
19813;DHT22;10066;48.108;11.448;2022-08-21T02:35:38;14.80;99.90
19813;DHT22;10066;48.108;11.448;2022-08-21T02:38:09;14.70;99.90
19813;DHT22;10066;48.108;11.448;2022-08-21T02:40:38;14.60;99.90
19813;DHT22;10066;48.108;11.448;2022-08-21T02:43:07;14.70;99.90
19813;DHT22;10066;48.108;11.448;2022-08-21T02:45:36;14.60;99.90
19813;DHT22;10066;48.108;11.448;2022-08-21T02:48:05;14.60;99.90
19813;DHT22;10066;48.108;11.448;2022-08-21T02:50:34;14.60;99.90
19813;DHT22;10066;48.108;11.448;2022-08-21T02:53:02;14.60;99.90
19813;DHT22;10066;48.108;11.448;2022-08-21T02:55:31;14.60;99.90
19813;DHT22;10066;48.108;11.448;2022-08-21T02:57:59;14.60;99.90
19813;DHT22;10066;48.108;11.448;2022-08-21T03:00:28;14.60;99.90
19813;DHT22;10066;48.108;11.448;2022-08-21T03:02:58;14.60;99.90
19813;DHT22;10066;48.108;11.448;2022-08-21T03:05:26;14.50;99.90
19813;DHT22;10066;48.108;11.448;2022-08-21T03:07:54;14.50;99.90
19813;DHT22;10066;48.108;11.448;2022-08-21T03:10:22;14.50;99.90
19813;DHT22;10066;48.108;11.448;2022-08-21T03:12:48;14.50;99.90
19813;DHT22;10066;48.108;11.448;2022-08-21T03:15:19;14.40;99.90
19813;DHT22;10066;48.108;11.448;2022-08-21T03:17:47;14.40;99.90
19813;DHT22;10066;48.108;11.448;2022-08-21T03:20:17;14.40;99.90
19813;DHT22;10066;48.108;11.448;2022-08-21T03:22:45;14.40;99.90
19813;DHT22;10066;48.108;11.448;2022-08-21T03:25:12;14.40;99.90
19813;DHT22;10066;48.108;11.448;2022-08-21T03:27:39;14.40;99.90
19813;DHT22;10066;48.108;11.448;2022-08-21T03:30:07;14.30;99.90
19813;DHT22;10066;48.108;11.448;2022-08-21T03:32:35;14.30;99.90
19813;DHT22;10066;48.108;11.448;2022-08-21T03:35:03;14.30;99.90
19813;DHT22;10066;48.108;11.448;2022-08-21T03:37:31;14.30;99.90
19813;DHT22;10066;48.108;11.448;2022-08-21T03:39:58;14.30;99.90
19813;DHT22;10066;48.108;11.448;2022-08-21T03:42:25;14.30;99.90
19813;DHT22;10066;48.108;11.448;2022-08-21T03:44:52;14.20;99.90
19813;DHT22;10066;48.108;11.448;2022-08-21T03:47:19;14.20;99.90
19813;DHT22;10066;48.108;11.448;2022-08-21T03:49:47;14.20;99.90
19813;DHT22;10066;48.108;11.448;2022-08-21T03:52:14;14.20;99.90
19813;DHT22;10066;48.108;11.448;2022-08-21T03:54:43;14.20;99.90
19813;DHT22;10066;48.108;11.448;2022-08-21T03:57:10;14.20;99.90
19813;DHT22;10066;48.108;11.448;2022-08-21T03:59:37;14.10;99.90
19813;DHT22;10066;48.108;11.448;2022-08-21T04:02:06;14.10;99.90
19813;DHT22;10066;48.108;11.448;2022-08-21T04:04:34;14.10;99.90
19813;DHT22;10066;48.108;11.448;2022-08-21T04:07:01;14.10;99.90
19813;DHT22;10066;48.108;11.448;2022-08-21T04:09:28;14.10;99.90
19813;DHT22;10066;48.108;11.448;2022-08-21T04:11:58;14.00;99.90
19813;DHT22;10066;48.108;11.448;2022-08-21T04:14:25;14.00;99.90
19813;DHT22;10066;48.108;11.448;2022-08-21T04:16:53;14.00;99.90
19813;DHT22;10066;48.108;11.448;2022-08-21T04:19:19;14.00;99.90
19813;DHT22;10066;48.108;11.448;2022-08-21T04:21:46;14.00;99.90
19813;DHT22;10066;48.108;11.448;2022-08-21T04:24:15;13.90;99.90
19813;DHT22;10066;48.108;11.448;2022-08-21T04:26:42;13.90;99.90
19813;DHT22;10066;48.108;11.448;2022-08-21T04:29:10;14.00;99.90
19813;DHT22;10066;48.108;11.448;2022-08-21T04:31:37;14.00;99.90
19813;DHT22;10066;48.108;11.448;2022-08-21T04:34:05;14.00;99.90
19813;DHT22;10066;48.108;11.448;2022-08-21T04:36:32;14.00;99.90
19813;DHT22;10066;48.108;11.448;2022-08-21T04:38:59;14.00;99.90
19813;DHT22;10066;48.108;11.448;2022-08-21T04:41:27;14.10;99.90
19813;DHT22;10066;48.108;11.448;2022-08-21T04:43:54;14.10;99.90
19813;DHT22;10066;48.108;11.448;2022-08-21T04:46:23;14.10;99.90
19813;DHT22;10066;48.108;11.448;2022-08-21T04:48:50;14.10;99.90
19813;DHT22;10066;48.108;11.448;2022-08-21T04:51:21;14.20;99.90
19813;DHT22;10066;48.108;11.448;2022-08-21T04:53:54;14.20;99.90
19813;DHT22;10066;48.108;11.448;2022-08-21T04:56:24;14.20;99.90
19813;DHT22;10066;48.108;11.448;2022-08-21T04:58:52;14.20;99.90
19813;DHT22;10066;48.108;11.448;2022-08-21T05:01:25;14.20;99.90
19813;DHT22;10066;48.108;11.448;2022-08-21T05:03:56;14.30;99.90
19813;DHT22;10066;48.108;11.448;2022-08-21T05:06:24;14.20;99.90
19813;DHT22;10066;48.108;11.448;2022-08-21T05:08:53;14.20;99.90
19813;DHT22;10066;48.108;11.448;2022-08-21T05:11:22;14.30;99.90
19813;DHT22;10066;48.108;11.448;2022-08-21T05:13:49;14.20;99.90
19813;DHT22;10066;48.108;11.448;2022-08-21T05:16:16;14.30;99.90
19813;DHT22;10066;48.108;11.448;2022-08-21T05:18:44;14.40;99.90
19813;DHT22;10066;48.108;11.448;2022-08-21T05:21:11;14.40;99.90
19813;DHT22;10066;48.108;11.448;2022-08-21T05:23:38;14.40;99.90
19813;DHT22;10066;48.108;11.448;2022-08-21T05:26:05;14.50;99.90
19813;DHT22;10066;48.108;11.448;2022-08-21T05:28:32;14.60;99.90
19813;DHT22;10066;48.108;11.448;2022-08-21T05:30:59;14.70;99.90
19813;DHT22;10066;48.108;11.448;2022-08-21T05:33:26;14.80;99.90
19813;DHT22;10066;48.108;11.448;2022-08-21T05:35:54;14.90;99.90
19813;DHT22;10066;48.108;11.448;2022-08-21T05:38:23;15.00;99.90
19813;DHT22;10066;48.108;11.448;2022-08-21T05:40:50;15.00;99.90
19813;DHT22;10066;48.108;11.448;2022-08-21T05:43:17;15.10;99.90
19813;DHT22;10066;48.108;11.448;2022-08-21T05:45:44;15.10;99.90
19813;DHT22;10066;48.108;11.448;2022-08-21T05:48:12;15.30;99.90
19813;DHT22;10066;48.108;11.448;2022-08-21T05:50:40;16.40;99.90
19813;DHT22;10066;48.108;11.448;2022-08-21T05:55:38;18.70;99.90
19813;DHT22;10066;48.108;11.448;2022-08-21T05:58:05;20.10;99.90
19813;DHT22;10066;48.108;11.448;2022-08-21T06:00:32;20.10;99.90
19813;DHT22;10066;48.108;11.448;2022-08-21T06:02:59;20.60;99.90
19813;DHT22;10066;48.108;11.448;2022-08-21T06:05:27;21.10;99.90
19813;DHT22;10066;48.108;11.448;2022-08-21T06:07:54;21.60;99.90
19813;DHT22;10066;48.108;11.448;2022-08-21T06:10:23;22.10;99.90
19813;DHT22;10066;48.108;11.448;2022-08-21T06:15:20;22.90;99.90
19813;DHT22;10066;48.108;11.448;2022-08-21T06:17:47;23.20;99.90
19813;DHT22;10066;48.108;11.448;2022-08-21T06:20:14;23.50;99.90
19813;DHT22;10066;48.108;11.448;2022-08-21T06:22:41;23.70;99.90
19813;DHT22;10066;48.108;11.448;2022-08-21T06:25:08;23.70;99.90
19813;DHT22;10066;48.108;11.448;2022-08-21T06:27:37;23.40;99.90
19813;DHT22;10066;48.108;11.448;2022-08-21T06:30:05;22.90;99.90
19813;DHT22;10066;48.108;11.448;2022-08-21T06:32:33;22.00;99.90
19813;DHT22;10066;48.108;11.448;2022-08-21T06:35:01;21.20;99.90
19813;DHT22;10066;48.108;11.448;2022-08-21T06:37:28;20.50;99.90
19813;DHT22;10066;48.108;11.448;2022-08-21T06:39:55;19.90;99.90
19813;DHT22;10066;48.108;11.448;2022-08-21T06:42:22;19.40;99.90
19813;DHT22;10066;48.108;11.448;2022-08-21T06:44:50;19.10;99.90
19813;DHT22;10066;48.108;11.448;2022-08-21T06:47:17;18.80;99.90
19813;DHT22;10066;48.108;11.448;2022-08-21T06:49:44;18.60;99.90
19813;DHT22;10066;48.108;11.448;2022-08-21T06:52:12;18.40;99.90
19813;DHT22;10066;48.108;11.448;2022-08-21T06:54:39;18.30;99.90
19813;DHT22;10066;48.108;11.448;2022-08-21T06:57:06;18.30;99.90
19813;DHT22;10066;48.108;11.448;2022-08-21T06:59:34;18.20;99.90
19813;DHT22;10066;48.108;11.448;2022-08-21T07:02:03;18.20;99.90
19813;DHT22;10066;48.108;11.448;2022-08-21T07:04:30;18.10;99.90
19813;DHT22;10066;48.108;11.448;2022-08-21T07:06:57;18.10;99.90
19813;DHT22;10066;48.108;11.448;2022-08-21T07:09:23;18.10;99.90
19813;DHT22;10066;48.108;11.448;2022-08-21T07:11:53;18.10;99.90
19813;DHT22;10066;48.108;11.448;2022-08-21T07:14:20;18.20;99.90
19813;DHT22;10066;48.108;11.448;2022-08-21T07:16:47;18.20;99.90
19813;DHT22;10066;48.108;11.448;2022-08-21T07:19:17;18.30;99.90
19813;DHT22;10066;48.108;11.448;2022-08-21T07:21:45;18.30;99.90
19813;DHT22;10066;48.108;11.448;2022-08-21T07:24:12;18.30;99.90
19813;DHT22;10066;48.108;11.448;2022-08-21T07:26:39;18.40;99.90
19813;DHT22;10066;48.108;11.448;2022-08-21T07:29:07;18.40;99.90
19813;DHT22;10066;48.108;11.448;2022-08-21T07:31:34;18.40;99.90
19813;DHT22;10066;48.108;11.448;2022-08-21T07:34:01;18.50;99.90
19813;DHT22;10066;48.108;11.448;2022-08-21T07:36:29;18.50;99.90
19813;DHT22;10066;48.108;11.448;2022-08-21T07:38:56;18.60;99.90
19813;DHT22;10066;48.108;11.448;2022-08-21T07:41:26;18.60;99.90
19813;DHT22;10066;48.108;11.448;2022-08-21T07:43:55;18.60;99.90
19813;DHT22;10066;48.108;11.448;2022-08-21T07:46:23;18.60;99.90
19813;DHT22;10066;48.108;11.448;2022-08-21T07:48:51;18.70;99.90
19813;DHT22;10066;48.108;11.448;2022-08-21T07:51:19;18.80;99.90
19813;DHT22;10066;48.108;11.448;2022-08-21T07:53:49;18.90;99.90
19813;DHT22;10066;48.108;11.448;2022-08-21T07:56:17;19.00;99.90
19813;DHT22;10066;48.108;11.448;2022-08-21T07:58:45;19.10;99.90
19813;DHT22;10066;48.108;11.448;2022-08-21T08:01:12;19.20;99.90
19813;DHT22;10066;48.108;11.448;2022-08-21T08:03:40;19.30;99.90
19813;DHT22;10066;48.108;11.448;2022-08-21T08:06:07;19.40;99.90
19813;DHT22;10066;48.108;11.448;2022-08-21T08:08:37;19.50;99.90
19813;DHT22;10066;48.108;11.448;2022-08-21T08:11:08;19.50;99.90
19813;DHT22;10066;48.108;11.448;2022-08-21T08:13:38;19.60;99.90
19813;DHT22;10066;48.108;11.448;2022-08-21T08:16:06;19.70;99.90
19813;DHT22;10066;48.108;11.448;2022-08-21T08:18:33;19.80;99.90
19813;DHT22;10066;48.108;11.448;2022-08-21T08:21:00;19.90;99.90
19813;DHT22;10066;48.108;11.448;2022-08-21T08:23:26;19.90;99.90
19813;DHT22;10066;48.108;11.448;2022-08-21T08:25:55;20.00;99.90
19813;DHT22;10066;48.108;11.448;2022-08-21T08:28:24;20.10;99.90
19813;DHT22;10066;48.108;11.448;2022-08-21T08:30:52;20.20;99.90
19813;DHT22;10066;48.108;11.448;2022-08-21T08:33:19;20.20;99.90
19813;DHT22;10066;48.108;11.448;2022-08-21T08:35:48;20.20;99.90
19813;DHT22;10066;48.108;11.448;2022-08-21T08:38:16;20.30;99.90
19813;DHT22;10066;48.108;11.448;2022-08-21T08:40:50;20.40;99.90
19813;DHT22;10066;48.108;11.448;2022-08-21T08:43:21;20.50;99.90
19813;DHT22;10066;48.108;11.448;2022-08-21T08:45:51;20.40;99.90
19813;DHT22;10066;48.108;11.448;2022-08-21T08:48:35;20.50;99.90
19813;DHT22;10066;48.108;11.448;2022-08-21T08:51:05;20.60;99.90
19813;DHT22;10066;48.108;11.448;2022-08-21T08:53:44;20.70;99.90
19813;DHT22;10066;48.108;11.448;2022-08-21T08:56:13;20.80;99.90
19813;DHT22;10066;48.108;11.448;2022-08-21T08:58:42;20.90;99.90
19813;DHT22;10066;48.108;11.448;2022-08-21T09:01:16;20.90;99.90
19813;DHT22;10066;48.108;11.448;2022-08-21T09:03:44;21.00;99.90
19813;DHT22;10066;48.108;11.448;2022-08-21T09:06:22;21.10;99.90
19813;DHT22;10066;48.108;11.448;2022-08-21T09:09:00;21.10;99.90
19813;DHT22;10066;48.108;11.448;2022-08-21T09:11:29;21.20;99.90
19813;DHT22;10066;48.108;11.448;2022-08-21T09:14:07;21.30;99.90
19813;DHT22;10066;48.108;11.448;2022-08-21T09:16:45;21.40;99.90
19813;DHT22;10066;48.108;11.448;2022-08-21T09:19:28;21.40;99.90
19813;DHT22;10066;48.108;11.448;2022-08-21T09:22:03;21.30;99.90
19813;DHT22;10066;48.108;11.448;2022-08-21T09:24:44;21.10;99.90
19813;DHT22;10066;48.108;11.448;2022-08-21T09:27:16;21.10;99.90
19813;DHT22;10066;48.108;11.448;2022-08-21T09:29:45;21.20;99.90
19813;DHT22;10066;48.108;11.448;2022-08-21T09:32:17;21.20;99.90
19813;DHT22;10066;48.108;11.448;2022-08-21T09:34:55;21.30;99.90
19813;DHT22;10066;48.108;11.448;2022-08-21T09:37:23;21.40;99.90
19813;DHT22;10066;48.108;11.448;2022-08-21T09:39:50;21.50;99.90
19813;DHT22;10066;48.108;11.448;2022-08-21T09:42:22;21.60;99.90
19813;DHT22;10066;48.108;11.448;2022-08-21T09:45:06;21.50;99.90
19813;DHT22;10066;48.108;11.448;2022-08-21T09:47:34;21.40;99.90
19813;DHT22;10066;48.108;11.448;2022-08-21T09:50:11;21.50;99.90
19813;DHT22;10066;48.108;11.448;2022-08-21T09:52:44;21.60;99.90
19813;DHT22;10066;48.108;11.448;2022-08-21T09:55:18;21.80;99.90
19813;DHT22;10066;48.108;11.448;2022-08-21T09:58:00;22.00;99.90
19813;DHT22;10066;48.108;11.448;2022-08-21T10:00:29;22.30;99.90
19813;DHT22;10066;48.108;11.448;2022-08-21T10:03:11;22.50;99.90
19813;DHT22;10066;48.108;11.448;2022-08-21T10:05:39;22.70;99.90
19813;DHT22;10066;48.108;11.448;2022-08-21T10:08:17;22.90;99.90
19813;DHT22;10066;48.108;11.448;2022-08-21T10:10:44;23.20;99.90
19813;DHT22;10066;48.108;11.448;2022-08-21T10:13:14;23.30;99.90
19813;DHT22;10066;48.108;11.448;2022-08-21T10:15:53;23.10;99.90
19813;DHT22;10066;48.108;11.448;2022-08-21T10:18:31;23.00;99.90
19813;DHT22;10066;48.108;11.448;2022-08-21T10:21:10;23.10;99.90
19813;DHT22;10066;48.108;11.448;2022-08-21T10:23:51;23.00;99.90
19813;DHT22;10066;48.108;11.448;2022-08-21T10:26:32;23.20;99.90
19813;DHT22;10066;48.108;11.448;2022-08-21T10:29:07;23.20;99.90
19813;DHT22;10066;48.108;11.448;2022-08-21T10:31:42;23.30;99.90
19813;DHT22;10066;48.108;11.448;2022-08-21T10:37:14;23.20;99.90
19813;DHT22;10066;48.108;11.448;2022-08-21T10:39:50;23.20;99.90
19813;DHT22;10066;48.108;11.448;2022-08-21T10:42:32;23.20;99.90
19813;DHT22;10066;48.108;11.448;2022-08-21T10:45:15;22.90;99.90
19813;DHT22;10066;48.108;11.448;2022-08-21T10:47:48;22.70;99.90
19813;DHT22;10066;48.108;11.448;2022-08-21T10:50:25;22.60;99.90
19813;DHT22;10066;48.108;11.448;2022-08-21T10:53:27;22.40;99.90
19813;DHT22;10066;48.108;11.448;2022-08-21T10:55:59;22.20;99.90
19813;DHT22;10066;48.108;11.448;2022-08-21T10:58:30;22.20;99.90
19813;DHT22;10066;48.108;11.448;2022-08-21T11:01:05;22.20;99.90
19813;DHT22;10066;48.108;11.448;2022-08-21T11:03:39;22.20;99.90
19813;DHT22;10066;48.108;11.448;2022-08-21T11:06:13;22.10;99.90
19813;DHT22;10066;48.108;11.448;2022-08-21T11:08:42;22.20;99.90
19813;DHT22;10066;48.108;11.448;2022-08-21T11:11:12;22.20;99.90
19813;DHT22;10066;48.108;11.448;2022-08-21T11:13:43;22.30;99.90
19813;DHT22;10066;48.108;11.448;2022-08-21T11:16:17;22.50;99.90
19813;DHT22;10066;48.108;11.448;2022-08-21T11:18:50;22.80;99.90
19813;DHT22;10066;48.108;11.448;2022-08-21T11:21:29;22.90;99.90
19813;DHT22;10066;48.108;11.448;2022-08-21T11:24:03;22.80;99.90
19813;DHT22;10066;48.108;11.448;2022-08-21T11:26:35;22.70;99.90
19813;DHT22;10066;48.108;11.448;2022-08-21T11:29:10;22.50;99.90
19813;DHT22;10066;48.108;11.448;2022-08-21T11:31:52;22.50;99.90
19813;DHT22;10066;48.108;11.448;2022-08-21T11:34:42;22.50;99.90
19813;DHT22;10066;48.108;11.448;2022-08-21T11:37:21;22.40;99.90
19813;DHT22;10066;48.108;11.448;2022-08-21T11:39:54;22.40;99.90
19813;DHT22;10066;48.108;11.448;2022-08-21T11:42:29;22.40;99.90
19813;DHT22;10066;48.108;11.448;2022-08-21T11:45:12;22.20;99.90
19813;DHT22;10066;48.108;11.448;2022-08-21T11:47:51;22.10;99.90
19813;DHT22;10066;48.108;11.448;2022-08-21T11:50:24;21.90;99.90
19813;DHT22;10066;48.108;11.448;2022-08-21T11:52:59;21.80;99.90
19813;DHT22;10066;48.108;11.448;2022-08-21T11:55:32;21.80;99.90
19813;DHT22;10066;48.108;11.448;2022-08-21T11:58:05;22.00;99.90
19813;DHT22;10066;48.108;11.448;2022-08-21T12:00:36;21.90;99.90
19813;DHT22;10066;48.108;11.448;2022-08-21T12:03:09;22.00;99.90
19813;DHT22;10066;48.108;11.448;2022-08-21T12:05:40;22.10;99.90
19813;DHT22;10066;48.108;11.448;2022-08-21T12:08:12;22.30;99.90
19813;DHT22;10066;48.108;11.448;2022-08-21T12:10:42;22.50;99.90
19813;DHT22;10066;48.108;11.448;2022-08-21T12:13:25;22.70;99.90
19813;DHT22;10066;48.108;11.448;2022-08-21T12:15:52;22.90;99.90
19813;DHT22;10066;48.108;11.448;2022-08-21T12:18:22;23.00;99.90
19813;DHT22;10066;48.108;11.448;2022-08-21T12:21:03;22.90;99.90
19813;DHT22;10066;48.108;11.448;2022-08-21T12:23:34;23.10;99.90
19813;DHT22;10066;48.108;11.448;2022-08-21T12:26:24;23.40;99.90
19813;DHT22;10066;48.108;11.448;2022-08-21T12:29:04;23.40;99.90
19813;DHT22;10066;48.108;11.448;2022-08-21T12:31:32;23.30;99.90
19813;DHT22;10066;48.108;11.448;2022-08-21T12:34:02;23.30;99.90
19813;DHT22;10066;48.108;11.448;2022-08-21T12:36:41;23.30;99.90
19813;DHT22;10066;48.108;11.448;2022-08-21T12:39:15;23.10;99.90
19813;DHT22;10066;48.108;11.448;2022-08-21T12:41:49;23.10;99.90
19813;DHT22;10066;48.108;11.448;2022-08-21T12:44:22;23.10;99.90
19813;DHT22;10066;48.108;11.448;2022-08-21T12:46:57;23.00;99.90
19813;DHT22;10066;48.108;11.448;2022-08-21T12:49:28;22.90;99.90
19813;DHT22;10066;48.108;11.448;2022-08-21T12:52:02;23.00;99.90
19813;DHT22;10066;48.108;11.448;2022-08-21T12:54:37;23.00;99.90
19813;DHT22;10066;48.108;11.448;2022-08-21T12:57:06;23.10;99.90
19813;DHT22;10066;48.108;11.448;2022-08-21T12:59:37;23.00;99.90
19813;DHT22;10066;48.108;11.448;2022-08-21T13:02:14;23.10;99.90
19813;DHT22;10066;48.108;11.448;2022-08-21T13:04:42;23.10;99.90
19813;DHT22;10066;48.108;11.448;2022-08-21T13:07:12;23.10;99.90
19813;DHT22;10066;48.108;11.448;2022-08-21T13:09:46;23.20;99.90
19813;DHT22;10066;48.108;11.448;2022-08-21T13:12:14;23.20;99.90
19813;DHT22;10066;48.108;11.448;2022-08-21T13:14:42;23.20;99.90
19813;DHT22;10066;48.108;11.448;2022-08-21T13:17:12;23.00;99.90
19813;DHT22;10066;48.108;11.448;2022-08-21T13:19:40;23.00;99.90
19813;DHT22;10066;48.108;11.448;2022-08-21T13:22:13;22.90;99.90
19813;DHT22;10066;48.108;11.448;2022-08-21T13:24:41;22.90;99.90
19813;DHT22;10066;48.108;11.448;2022-08-21T13:27:22;22.80;99.90
19813;DHT22;10066;48.108;11.448;2022-08-21T13:30:02;22.70;99.90
19813;DHT22;10066;48.108;11.448;2022-08-21T13:32:30;22.70;99.90
19813;DHT22;10066;48.108;11.448;2022-08-21T13:35:00;22.80;99.90
19813;DHT22;10066;48.108;11.448;2022-08-21T13:37:34;22.90;99.90
19813;DHT22;10066;48.108;11.448;2022-08-21T13:40:07;23.00;99.90
19813;DHT22;10066;48.108;11.448;2022-08-21T13:42:34;23.10;99.90
19813;DHT22;10066;48.108;11.448;2022-08-21T13:45:02;23.20;99.90
19813;DHT22;10066;48.108;11.448;2022-08-21T13:47:29;23.30;99.90
19813;DHT22;10066;48.108;11.448;2022-08-21T13:49:57;23.40;99.90
19813;DHT22;10066;48.108;11.448;2022-08-21T13:52:26;23.40;99.90
19813;DHT22;10066;48.108;11.448;2022-08-21T13:54:55;23.50;99.90
19813;DHT22;10066;48.108;11.448;2022-08-21T13:57:28;23.60;99.90
19813;DHT22;10066;48.108;11.448;2022-08-21T14:00:11;23.60;99.90
19813;DHT22;10066;48.108;11.448;2022-08-21T14:02:40;23.60;99.90
19813;DHT22;10066;48.108;11.448;2022-08-21T14:05:15;23.60;99.90
19813;DHT22;10066;48.108;11.448;2022-08-21T14:07:43;23.40;99.90
19813;DHT22;10066;48.108;11.448;2022-08-21T14:10:14;23.40;99.90
19813;DHT22;10066;48.108;11.448;2022-08-21T14:12:46;23.40;99.90
19813;DHT22;10066;48.108;11.448;2022-08-21T14:15:14;23.40;99.90
19813;DHT22;10066;48.108;11.448;2022-08-21T14:17:42;23.40;99.90
19813;DHT22;10066;48.108;11.448;2022-08-21T14:20:12;23.50;99.90
19813;DHT22;10066;48.108;11.448;2022-08-21T14:22:41;23.50;99.90
19813;DHT22;10066;48.108;11.448;2022-08-21T14:25:12;23.40;99.90
19813;DHT22;10066;48.108;11.448;2022-08-21T14:27:50;23.40;99.90
19813;DHT22;10066;48.108;11.448;2022-08-21T14:30:20;23.40;99.90
19813;DHT22;10066;48.108;11.448;2022-08-21T14:32:48;23.50;99.90
19813;DHT22;10066;48.108;11.448;2022-08-21T14:35:15;23.60;99.90
19813;DHT22;10066;48.108;11.448;2022-08-21T14:37:43;23.70;99.90
19813;DHT22;10066;48.108;11.448;2022-08-21T14:40:11;23.80;99.90
19813;DHT22;10066;48.108;11.448;2022-08-21T14:42:39;23.80;97.90
19813;DHT22;10066;48.108;11.448;2022-08-21T14:45:14;23.90;98.50
19813;DHT22;10066;48.108;11.448;2022-08-21T14:47:41;24.00;99.20
19813;DHT22;10066;48.108;11.448;2022-08-21T14:50:10;24.10;98.30
19813;DHT22;10066;48.108;11.448;2022-08-21T14:52:37;24.00;94.20
19813;DHT22;10066;48.108;11.448;2022-08-21T14:55:07;24.00;94.90
19813;DHT22;10066;48.108;11.448;2022-08-21T14:57:36;24.10;94.90
19813;DHT22;10066;48.108;11.448;2022-08-21T15:00:06;24.00;94.60
19813;DHT22;10066;48.108;11.448;2022-08-21T15:02:36;24.00;93.80
19813;DHT22;10066;48.108;11.448;2022-08-21T15:05:03;23.90;93.60
19813;DHT22;10066;48.108;11.448;2022-08-21T15:07:30;23.80;95.20
19813;DHT22;10066;48.108;11.448;2022-08-21T15:09:57;23.70;95.80
19813;DHT22;10066;48.108;11.448;2022-08-21T15:12:25;23.70;95.60
19813;DHT22;10066;48.108;11.448;2022-08-21T15:14:51;23.70;95.30
19813;DHT22;10066;48.108;11.448;2022-08-21T15:17:20;23.70;93.80
19813;DHT22;10066;48.108;11.448;2022-08-21T15:19:48;23.70;94.20
19813;DHT22;10066;48.108;11.448;2022-08-21T15:22:15;23.80;94.30
19813;DHT22;10066;48.108;11.448;2022-08-21T15:24:42;23.80;94.80
19813;DHT22;10066;48.108;11.448;2022-08-21T15:27:10;23.70;94.10
19813;DHT22;10066;48.108;11.448;2022-08-21T15:29:37;23.60;93.20
19813;DHT22;10066;48.108;11.448;2022-08-21T15:32:17;23.60;93.60
19813;DHT22;10066;48.108;11.448;2022-08-21T15:34:44;23.60;92.60
19813;DHT22;10066;48.108;11.448;2022-08-21T15:37:13;23.60;93.40
19813;DHT22;10066;48.108;11.448;2022-08-21T15:39:40;23.60;90.80